Search METAR Data

METAR Data for ENBO:

ENBO 241220Z 10009KT 9999 BKN041 04/M02 Q1009 NOSIG